Alex, Minnesota
Current Conditions -  °F | °C
As of 3:53 AM on Saturday 20 Dec 2014 (Local Time) from KAXN Reporting Station
Haze Haze  
Wind Chill: -7°   Ceiling: 600
Heat Index: -1°   Visibility: 4mi
Dew Point: -3°   Wind: 15mph
Humidity: 88%   Direction: 200°SSW
Pressure: 30.06"   Gusts: NA
Location:  45.8551°N, 95.4333°W
Report Text: KAXN 200953Z AUTO 20013KT 4SM BR OVC006 M01/M03 A3006 RMK AO2 SLP199 T10111028
Loading
Personal Weather Stations






























Interactive Weather Map New forecast layout! Learn more

10-Day Weather Forecast

Advertisements
Track Severe Weather on mobile